createdAt,value
2023-03-31T00:02:15.457Z,36.38
2023-03-31T00:04:52.486Z,36.40
2023-03-31T00:07:22.168Z,36.41
2023-03-31T00:09:49.936Z,36.42
2023-03-31T00:12:17.361Z,36.45
2023-03-31T00:14:44.807Z,36.43
2023-03-31T00:17:12.533Z,36.47
2023-03-31T00:19:41.812Z,36.49
2023-03-31T00:22:09.277Z,36.51
2023-03-31T00:24:37.042Z,36.53
2023-03-31T00:27:04.741Z,36.56
2023-03-31T00:29:33.650Z,36.59
2023-03-31T00:32:01.465Z,36.56
2023-03-31T00:34:30.104Z,36.55
2023-03-31T00:37:02.602Z,36.57
2023-03-31T00:39:35.451Z,36.58
2023-03-31T00:42:03.904Z,36.60
2023-03-31T00:44:34.382Z,36.61
2023-03-31T00:47:04.249Z,36.62
2023-03-31T00:49:33.269Z,36.60
2023-03-31T00:52:37.457Z,36.39
2023-03-31T00:55:08.916Z,36.55
2023-03-31T00:57:39.332Z,36.64
2023-03-31T01:00:15.623Z,36.67
2023-03-31T01:02:46.618Z,36.71
2023-03-31T01:05:14.492Z,36.69
2023-03-31T01:07:43.423Z,36.69
2023-03-31T01:10:11.949Z,36.70
2023-03-31T01:12:41.063Z,36.71
2023-03-31T01:15:09.091Z,36.75
2023-03-31T01:17:37.039Z,36.76
2023-03-31T01:20:46.577Z,36.78
2023-03-31T01:24:02.945Z,36.79
2023-03-31T01:26:43.039Z,36.76
2023-03-31T01:29:40.450Z,36.82
2023-03-31T01:32:32.392Z,36.82
2023-03-31T01:35:08.834Z,36.90
2023-03-31T01:37:51.651Z,36.98
2023-03-31T01:40:37.799Z,36.97
2023-03-31T01:43:14.611Z,36.95
2023-03-31T01:45:54.516Z,36.96
2023-03-31T01:48:48.488Z,37.00
2023-03-31T01:51:23.214Z,37.00
2023-03-31T01:53:55.819Z,37.10
2023-03-31T01:56:28.230Z,37.11
2023-03-31T01:59:02.478Z,37.09
2023-03-31T02:01:37.247Z,37.14
2023-03-31T02:04:15.149Z,37.19
2023-03-31T02:06:45.343Z,37.17
2023-03-31T02:09:16.474Z,37.20
2023-03-31T02:11:43.915Z,37.25
2023-03-31T02:14:12.689Z,37.21
2023-03-31T02:16:41.920Z,37.28
2023-03-31T02:19:09.482Z,37.31
2023-03-31T02:21:38.625Z,37.28
2023-03-31T02:24:07.784Z,37.33
2023-03-31T02:26:37.945Z,37.35
2023-03-31T02:29:06.042Z,37.32
2023-03-31T02:31:58.188Z,37.33
2023-03-31T02:34:26.801Z,37.34
2023-03-31T02:36:54.311Z,37.35
2023-03-31T02:39:25.507Z,37.36
2023-03-31T02:41:54.153Z,37.40
2023-03-31T02:44:21.586Z,37.44
2023-03-31T02:46:50.351Z,37.42
2023-03-31T02:49:18.106Z,37.41
2023-03-31T02:52:11.298Z,37.39
2023-03-31T02:54:52.640Z,37.40
2023-03-31T02:58:18.414Z,37.42
2023-03-31T03:00:59.805Z,37.41
2023-03-31T03:03:30.518Z,37.42
2023-03-31T03:06:06.179Z,37.43
2023-03-31T03:08:55.486Z,37.41
2023-03-31T03:11:33.049Z,37.42
2023-03-31T03:14:01.935Z,37.43
2023-03-31T03:16:37.007Z,37.47
2023-03-31T03:19:06.101Z,37.44
2023-03-31T03:21:33.879Z,37.35
2023-03-31T03:24:01.722Z,37.42
2023-03-31T03:26:29.147Z,37.43
2023-03-31T03:28:57.218Z,37.43
2023-03-31T03:31:26.174Z,37.42
2023-03-31T03:33:53.960Z,37.42
2023-03-31T03:36:23.098Z,37.43
2023-03-31T03:38:51.054Z,37.42
2023-03-31T03:41:18.528Z,37.45
2023-03-31T03:43:46.242Z,37.44
2023-03-31T03:46:13.723Z,37.43
2023-03-31T03:48:41.395Z,37.44
2023-03-31T03:51:09.179Z,37.44
2023-03-31T03:53:36.620Z,37.42
2023-03-31T03:56:04.448Z,37.42
2023-03-31T03:58:33.315Z,37.45
2023-03-31T04:01:00.792Z,37.34
2023-03-31T04:03:28.940Z,37.11
2023-03-31T04:05:56.990Z,36.89
2023-03-31T04:08:24.697Z,36.77
2023-03-31T04:10:52.930Z,36.69
2023-03-31T04:13:20.899Z,36.62
2023-03-31T04:15:48.508Z,36.58
2023-03-31T04:18:23.305Z,36.50
2023-03-31T04:21:04.163Z,36.48
2023-03-31T04:23:42.672Z,36.47
2023-03-31T04:26:10.561Z,36.47
2023-03-31T04:28:38.527Z,36.47
2023-03-31T04:31:07.083Z,36.47
2023-03-31T04:33:38.664Z,36.43
2023-03-31T04:36:17.848Z,36.39
2023-03-31T04:38:47.010Z,36.34
2023-03-31T04:41:15.012Z,36.32
2023-03-31T04:43:42.514Z,36.29
2023-03-31T04:46:10.278Z,36.30
2023-03-31T04:48:38.353Z,36.31
2023-03-31T04:51:05.926Z,36.31
2023-03-31T04:53:34.362Z,36.32
2023-03-31T04:56:04.246Z,36.30
2023-03-31T04:58:31.894Z,36.31
2023-03-31T05:00:59.419Z,36.30
2023-03-31T05:03:27.372Z,36.28
2023-03-31T05:05:55.084Z,36.28
2023-03-31T05:08:22.707Z,36.28
2023-03-31T05:10:50.502Z,36.27
2023-03-31T05:13:18.016Z,36.26
2023-03-31T05:15:45.566Z,36.25
2023-03-31T05:18:13.372Z,36.27
2023-03-31T05:20:41.145Z,36.25
2023-03-31T05:23:08.642Z,36.25
2023-03-31T05:25:37.252Z,36.24
2023-03-31T05:28:06.144Z,36.23
2023-03-31T05:30:33.648Z,36.22
2023-03-31T05:33:02.162Z,36.21
2023-03-31T05:35:30.274Z,36.21
2023-03-31T05:37:57.712Z,36.20
2023-03-31T05:40:25.758Z,36.19
2023-03-31T05:42:53.930Z,36.19
2023-03-31T05:45:21.365Z,36.18
2023-03-31T05:47:49.317Z,36.18
2023-03-31T05:50:16.993Z,36.18
2023-03-31T05:52:44.569Z,36.16
2023-03-31T05:55:13.305Z,36.16
2023-03-31T05:57:40.811Z,36.15
2023-03-31T06:00:10.662Z,36.15
2023-03-31T06:02:39.362Z,36.13
2023-03-31T06:05:08.129Z,36.14
2023-03-31T06:07:35.957Z,36.12
2023-03-31T06:10:03.991Z,36.12
2023-03-31T06:12:50.193Z,36.10
2023-03-31T06:15:17.962Z,36.12
2023-03-31T06:17:45.725Z,36.12
2023-03-31T06:20:27.164Z,36.11
2023-03-31T06:22:56.283Z,36.10
2023-03-31T06:25:23.783Z,36.09
2023-03-31T06:27:51.283Z,36.10
2023-03-31T06:30:19.329Z,36.08
2023-03-31T06:32:47.093Z,36.08
2023-03-31T06:35:14.652Z,36.08
2023-03-31T06:37:42.460Z,36.05
2023-03-31T06:40:10.475Z,36.02
2023-03-31T06:42:38.101Z,36.04
2023-03-31T06:45:07.991Z,36.07
2023-03-31T06:47:38.224Z,35.95
2023-03-31T06:50:06.938Z,36.13
2023-03-31T06:52:34.856Z,36.21
2023-03-31T06:55:03.245Z,36.24
2023-03-31T06:57:34.072Z,36.22
2023-03-31T07:00:01.625Z,36.24
2023-03-31T07:02:29.348Z,36.26
2023-03-31T07:04:57.600Z,36.22
2023-03-31T07:07:25.092Z,36.20
2023-03-31T07:09:52.711Z,36.21
2023-03-31T07:12:20.758Z,36.20
2023-03-31T07:14:48.300Z,36.18
2023-03-31T07:17:15.802Z,36.11
2023-03-31T07:19:48.000Z,36.07
2023-03-31T07:22:15.889Z,36.05
2023-03-31T07:24:44.195Z,36.08
2023-03-31T07:27:11.737Z,36.14
2023-03-31T07:29:39.180Z,36.18
2023-03-31T07:32:07.142Z,36.20
2023-03-31T07:34:37.030Z,36.22
2023-03-31T07:37:05.322Z,36.28
2023-03-31T07:39:33.398Z,36.33
2023-03-31T07:42:01.288Z,36.41
2023-03-31T07:44:28.791Z,36.33
2023-03-31T07:46:57.975Z,36.23
2023-03-31T07:49:25.518Z,36.24
2023-03-31T07:51:52.997Z,36.25
2023-03-31T07:54:20.914Z,36.21
2023-03-31T07:56:48.944Z,36.23
2023-03-31T07:59:16.543Z,36.20
2023-03-31T08:01:44.637Z,36.21
2023-03-31T08:04:12.879Z,36.23
2023-03-31T08:06:40.404Z,36.23
2023-03-31T08:09:08.187Z,36.17
2023-03-31T08:11:36.804Z,36.11
2023-03-31T08:14:04.317Z,36.19
2023-03-31T08:16:32.535Z,36.26
2023-03-31T08:19:01.956Z,36.25
2023-03-31T08:21:29.807Z,36.27
2023-03-31T08:23:57.534Z,36.29
2023-03-31T08:26:25.623Z,36.32
2023-03-31T08:28:53.290Z,36.38
2023-03-31T08:31:21.616Z,36.40
2023-03-31T08:33:49.517Z,36.44
2023-03-31T08:36:17.088Z,36.48
2023-03-31T08:38:48.166Z,36.51
2023-03-31T08:41:31.199Z,36.54
2023-03-31T08:43:58.754Z,36.59
2023-03-31T08:46:26.547Z,36.61
2023-03-31T08:48:57.735Z,36.66
2023-03-31T08:51:30.202Z,36.72
2023-03-31T08:54:08.047Z,36.77
2023-03-31T08:56:39.196Z,36.81
2023-03-31T08:59:07.338Z,36.84
2023-03-31T09:02:15.056Z,36.89
2023-03-31T09:04:43.066Z,36.94
2023-03-31T09:07:32.156Z,36.92
2023-03-31T09:10:12.032Z,37.00
2023-03-31T09:12:45.502Z,36.95
2023-03-31T09:15:40.555Z,36.99
2023-03-31T09:18:35.746Z,36.99
2023-03-31T09:21:21.569Z,37.02
2023-03-31T09:24:13.812Z,37.00
2023-03-31T09:26:44.218Z,37.08
2023-03-31T09:29:32.093Z,37.09
2023-03-31T09:32:36.372Z,36.81
2023-03-31T09:35:19.292Z,36.91
2023-03-31T09:37:48.340Z,36.83
2023-03-31T09:40:24.245Z,36.85
2023-03-31T09:42:56.804Z,36.86
2023-03-31T09:45:24.257Z,36.84
2023-03-31T09:47:55.879Z,36.78
2023-03-31T09:50:25.322Z,36.71
2023-03-31T09:52:55.878Z,36.68
2023-03-31T09:55:39.787Z,36.62
2023-03-31T09:58:08.659Z,36.43
2023-03-31T10:00:36.169Z,36.47
2023-03-31T10:03:07.700Z,36.52
2023-03-31T10:05:51.779Z,36.51
2023-03-31T10:08:33.344Z,36.51
2023-03-31T10:11:04.023Z,36.45
2023-03-31T10:13:58.844Z,36.47
2023-03-31T10:16:29.334Z,36.43
2023-03-31T10:19:19.025Z,36.46
2023-03-31T10:21:47.611Z,36.41
2023-03-31T10:24:19.375Z,36.37
2023-03-31T10:26:48.680Z,36.35
2023-03-31T10:29:22.048Z,36.28
2023-03-31T10:31:49.601Z,36.22
2023-03-31T10:34:17.554Z,36.14
2023-03-31T10:36:47.338Z,36.11
2023-03-31T10:39:15.959Z,36.08
2023-03-31T10:41:43.668Z,36.04
2023-03-31T10:44:31.066Z,36.03
2023-03-31T10:47:04.987Z,36.00
2023-03-31T10:49:38.610Z,36.00
2023-03-31T10:52:27.342Z,35.98
2023-03-31T10:55:01.625Z,36.01
2023-03-31T10:57:38.507Z,36.00
2023-03-31T11:00:27.830Z,35.99
2023-03-31T11:03:09.105Z,35.98
2023-03-31T11:06:11.818Z,35.91
2023-03-31T11:09:16.607Z,35.89
2023-03-31T11:11:47.145Z,35.73
2023-03-31T11:14:17.642Z,35.67
2023-03-31T11:16:57.145Z,35.59
2023-03-31T11:19:37.847Z,35.52
2023-03-31T11:22:14.423Z,35.44
2023-03-31T11:24:46.084Z,35.43
2023-03-31T11:27:17.113Z,35.44
2023-03-31T11:30:00.228Z,35.38
2023-03-31T11:32:34.067Z,35.31
2023-03-31T11:35:16.583Z,35.37
2023-03-31T11:38:14.078Z,35.38
2023-03-31T11:40:53.862Z,35.48
2023-03-31T11:43:43.971Z,35.59
2023-03-31T11:46:22.992Z,35.64
2023-03-31T11:48:59.128Z,35.72
2023-03-31T11:51:37.213Z,35.87
2023-03-31T11:54:12.030Z,36.03
2023-03-31T11:56:40.490Z,36.05
2023-03-31T11:59:09.243Z,36.04
2023-03-31T12:01:44.223Z,36.15
2023-03-31T12:04:21.637Z,36.20
2023-03-31T12:06:49.529Z,36.20
2023-03-31T12:09:50.285Z,36.15
2023-03-31T12:12:23.292Z,36.15
2023-03-31T12:15:14.816Z,36.09
2023-03-31T12:17:44.467Z,35.89
2023-03-31T12:20:13.620Z,35.89
2023-03-31T12:22:44.933Z,35.70
2023-03-31T12:25:15.077Z,35.90
2023-03-31T12:27:43.643Z,36.05
2023-03-31T12:30:21.101Z,36.13
2023-03-31T12:32:54.959Z,36.15
2023-03-31T12:35:25.902Z,36.21
2023-03-31T12:38:15.367Z,36.22
2023-03-31T12:40:45.870Z,36.17
2023-03-31T12:43:53.794Z,36.20
2023-03-31T12:46:28.634Z,36.18
2023-03-31T12:49:15.057Z,36.23
2023-03-31T12:51:58.286Z,36.23
2023-03-31T12:54:48.886Z,36.24
2023-03-31T12:57:23.643Z,36.31
2023-03-31T13:00:12.973Z,36.32
2023-03-31T13:02:41.073Z,36.31
2023-03-31T13:05:40.590Z,36.31
2023-03-31T13:08:08.439Z,36.25
2023-03-31T13:10:57.538Z,36.20
2023-03-31T13:13:24.999Z,35.94
2023-03-31T13:15:59.898Z,35.88
2023-03-31T13:18:33.272Z,35.82
2023-03-31T13:23:34.059Z,35.75
2023-03-31T13:26:02.146Z,35.67
2023-03-31T13:28:40.369Z,35.60
2023-03-31T13:31:12.574Z,35.57
2023-03-31T13:33:47.512Z,35.57
2023-03-31T13:36:34.145Z,35.57
2023-03-31T13:39:26.314Z,35.55
2023-03-31T13:42:09.318Z,35.56
2023-03-31T13:44:55.684Z,35.57
2023-03-31T13:47:54.098Z,35.55
2023-03-31T13:50:56.234Z,35.56
2023-03-31T13:53:51.413Z,35.57
2023-03-31T13:56:56.671Z,35.60
2023-03-31T13:59:36.378Z,35.60
2023-03-31T14:02:32.362Z,35.63
2023-03-31T14:05:02.060Z,35.60
2023-03-31T14:07:59.222Z,35.58
2023-03-31T14:10:31.469Z,35.56
2023-03-31T14:13:18.234Z,35.59
2023-03-31T14:15:50.405Z,35.61
2023-03-31T14:18:45.409Z,35.61
2023-03-31T14:21:45.791Z,35.60
2023-03-31T14:24:16.282Z,35.60
2023-03-31T14:27:32.594Z,35.48
2023-03-31T14:30:06.975Z,35.57
2023-03-31T14:32:43.445Z,35.63
2023-03-31T14:35:39.450Z,35.67
2023-03-31T14:38:11.899Z,35.63
2023-03-31T14:40:50.367Z,35.62
2023-03-31T14:43:26.018Z,35.57
2023-03-31T14:46:07.097Z,35.52
2023-03-31T14:48:45.451Z,35.42
2023-03-31T14:51:27.199Z,35.45
2023-03-31T14:53:58.967Z,35.45
2023-03-31T14:56:38.492Z,35.46
2023-03-31T14:59:06.370Z,35.47
2023-03-31T15:01:35.765Z,35.44
2023-03-31T15:04:07.693Z,35.43
2023-03-31T15:06:35.541Z,35.42
2023-03-31T15:09:03.888Z,35.33
2023-03-31T15:11:31.876Z,35.32
2023-03-31T15:14:05.525Z,35.23
2023-03-31T15:16:43.349Z,35.18
2023-03-31T15:19:12.899Z,35.21
2023-03-31T15:21:40.368Z,35.24
2023-03-31T15:24:08.108Z,35.20
2023-03-31T15:26:44.834Z,35.12
2023-03-31T15:29:19.778Z,35.09
2023-03-31T15:31:48.393Z,35.15
2023-03-31T15:34:25.867Z,35.07
2023-03-31T15:36:55.398Z,35.01
2023-03-31T15:39:27.053Z,34.97
2023-03-31T15:41:56.239Z,34.97
2023-03-31T15:44:43.078Z,35.04
2023-03-31T15:47:20.273Z,34.98
2023-03-31T15:49:50.254Z,34.94
2023-03-31T15:52:29.442Z,34.93
2023-03-31T15:54:57.161Z,34.93
2023-03-31T15:57:32.308Z,34.93
2023-03-31T16:00:00.702Z,34.97
2023-03-31T16:02:39.519Z,35.02
2023-03-31T16:05:13.862Z,35.08
2023-03-31T16:07:57.810Z,35.15
2023-03-31T16:10:25.686Z,35.22
2023-03-31T16:13:01.290Z,35.31
2023-03-31T16:15:31.776Z,35.37
2023-03-31T16:18:02.032Z,35.47
2023-03-31T16:20:37.333Z,35.50
2023-03-31T16:23:13.446Z,35.55
2023-03-31T16:25:42.089Z,35.55
2023-03-31T16:28:26.310Z,35.65
2023-03-31T16:30:54.851Z,35.63
2023-03-31T16:33:26.061Z,35.61
2023-03-31T16:35:56.395Z,35.67
2023-03-31T16:38:27.388Z,35.67
2023-03-31T16:40:56.832Z,35.68
2023-03-31T16:43:27.901Z,35.78
2023-03-31T16:46:01.216Z,35.78
2023-03-31T16:48:29.534Z,35.83
2023-03-31T16:50:58.519Z,35.81
2023-03-31T16:53:31.543Z,35.87
2023-03-31T16:55:59.470Z,35.83
2023-03-31T16:58:29.101Z,35.89
2023-03-31T17:00:57.722Z,35.92
2023-03-31T17:03:26.964Z,35.93
2023-03-31T17:05:58.978Z,35.98
2023-03-31T17:08:28.018Z,35.97
2023-03-31T17:10:59.805Z,36.00
2023-03-31T17:13:27.696Z,36.00
2023-03-31T17:16:04.652Z,36.04
2023-03-31T17:18:45.538Z,36.11
2023-03-31T17:21:14.488Z,36.11
2023-03-31T17:23:43.160Z,36.14
2023-03-31T17:26:12.772Z,36.12
2023-03-31T17:28:41.279Z,36.11
2023-03-31T17:31:16.981Z,36.08
2023-03-31T17:33:48.333Z,36.05
2023-03-31T17:36:19.850Z,36.09
2023-03-31T17:38:48.160Z,36.16
2023-03-31T17:41:17.912Z,36.30
2023-03-31T17:43:47.391Z,36.37
2023-03-31T17:46:17.031Z,36.41
2023-03-31T17:48:45.177Z,36.43
2023-03-31T17:51:15.904Z,36.42
2023-03-31T17:53:45.472Z,36.51
2023-03-31T17:56:14.452Z,36.50
2023-03-31T17:58:46.418Z,36.45
2023-03-31T18:01:14.518Z,36.46
2023-03-31T18:03:45.170Z,36.48
2023-03-31T18:06:16.189Z,36.51
2023-03-31T18:08:44.839Z,36.55
2023-03-31T18:11:14.053Z,36.55
2023-03-31T18:13:44.008Z,36.51
2023-03-31T18:16:13.246Z,36.51
2023-03-31T18:18:41.764Z,36.51
2023-03-31T18:21:12.023Z,36.55
2023-03-31T18:23:40.992Z,36.55
2023-03-31T18:26:11.880Z,36.55
2023-03-31T18:28:40.975Z,36.55
2023-03-31T18:31:09.987Z,36.54
2023-03-31T18:33:38.657Z,36.55
2023-03-31T18:36:08.479Z,36.53
2023-03-31T18:38:37.305Z,36.35
2023-03-31T18:41:05.472Z,36.48
2023-03-31T18:43:35.134Z,36.54
2023-03-31T18:46:03.915Z,36.54
2023-03-31T18:48:33.534Z,36.53
2023-03-31T18:51:02.697Z,36.53
2023-03-31T18:53:31.760Z,36.52
2023-03-31T18:56:00.097Z,36.55
2023-03-31T18:58:30.590Z,36.56
2023-03-31T19:00:59.558Z,36.57
2023-03-31T19:03:29.585Z,36.55
2023-03-31T19:06:06.027Z,36.52
2023-03-31T19:08:34.654Z,36.55
2023-03-31T19:11:13.779Z,36.56
2023-03-31T19:13:44.631Z,36.56
2023-03-31T19:16:18.818Z,36.53
2023-03-31T20:43:42.233Z,37.13
2023-03-31T20:46:11.698Z,37.20
2023-03-31T21:24:47.070Z,36.87
2023-03-31T21:27:14.875Z,36.90
2023-03-31T21:29:42.513Z,37.06
2023-03-31T21:32:10.034Z,37.05
2023-03-31T21:34:37.805Z,36.94
2023-03-31T21:37:05.236Z,36.82
2023-03-31T21:39:32.686Z,36.79
2023-03-31T21:42:00.857Z,36.76
2023-03-31T21:44:28.541Z,36.87
2023-03-31T21:46:56.071Z,36.53
2023-03-31T21:49:23.795Z,36.48
2023-03-31T21:51:51.225Z,36.58
2023-03-31T21:54:18.665Z,36.60
2023-03-31T21:56:46.413Z,36.67
2023-03-31T21:59:13.862Z,36.76
2023-03-31T22:01:41.664Z,36.81
2023-03-31T22:04:09.421Z,36.81
2023-03-31T22:06:39.176Z,36.80
2023-03-31T22:09:06.670Z,36.82
2023-03-31T22:11:34.412Z,36.83
2023-03-31T22:14:02.012Z,36.80
2023-03-31T22:16:29.854Z,36.82
2023-03-31T22:18:57.705Z,36.86
2023-03-31T22:21:40.406Z,36.93
2023-03-31T22:24:08.660Z,36.99
2023-03-31T22:26:36.066Z,37.07
2023-03-31T22:29:03.527Z,37.05
2023-03-31T22:31:31.337Z,37.09
2023-03-31T22:33:58.797Z,37.11
2023-03-31T22:36:27.177Z,37.19
2023-03-31T22:38:55.397Z,37.18
2023-03-31T22:41:22.897Z,37.10
2023-03-31T22:43:51.502Z,37.13
2023-03-31T22:46:19.321Z,37.15
2023-03-31T22:48:50.394Z,37.25
2023-03-31T22:51:17.852Z,37.34
2023-03-31T22:53:50.062Z,37.33
2023-03-31T22:56:17.614Z,37.34
2023-03-31T22:58:45.266Z,37.33
2023-03-31T23:01:15.707Z,37.31
2023-03-31T23:03:44.024Z,37.33
2023-03-31T23:06:12.290Z,37.36
2023-03-31T23:08:40.109Z,37.37
2023-03-31T23:11:10.961Z,37.40
2023-03-31T23:13:38.731Z,37.48
2023-03-31T23:16:10.349Z,37.52
2023-03-31T23:18:44.204Z,37.53
2023-03-31T23:21:16.244Z,37.53
2023-03-31T23:23:43.758Z,37.55
2023-03-31T23:26:12.420Z,37.55
2023-03-31T23:28:40.171Z,37.58
2023-03-31T23:31:07.972Z,37.58
2023-03-31T23:33:35.420Z,37.59
2023-03-31T23:36:04.957Z,37.58
2023-03-31T23:38:32.467Z,37.56
2023-03-31T23:41:00.442Z,37.61
2023-03-31T23:43:28.826Z,37.57
2023-03-31T23:45:56.501Z,37.59
2023-03-31T23:48:24.088Z,37.59
2023-03-31T23:50:51.811Z,37.58
2023-03-31T23:53:19.251Z,37.63
2023-03-31T23:55:56.700Z,37.63
2023-03-31T23:58:25.022Z,37.62
